sensor_id;sensor_type;location;lat;lon;timestamp;temperature;humidity
78611;SHT30;67932;50.474;4.436;2023-06-10T00:02:13;21.76;51.85
78611;SHT30;67932;50.474;4.436;2023-06-10T00:04:39;21.78;51.69
78611;SHT30;67932;50.474;4.436;2023-06-10T00:07:06;21.81;51.83
78611;SHT30;67932;50.474;4.436;2023-06-10T00:09:35;21.76;51.70
78611;SHT30;67932;50.474;4.436;2023-06-10T00:12:04;21.76;51.94
78611;SHT30;67932;50.474;4.436;2023-06-10T00:14:30;21.76;52.07
78611;SHT30;67932;50.474;4.436;2023-06-10T00:16:57;21.69;52.44
78611;SHT30;67932;50.474;4.436;2023-06-10T00:19:23;21.59;52.24
78611;SHT30;67932;50.474;4.436;2023-06-10T00:21:54;21.55;52.43
78611;SHT30;67932;50.474;4.436;2023-06-10T00:24:20;21.51;53.33
78611;SHT30;67932;50.474;4.436;2023-06-10T00:26:46;21.42;53.42
78611;SHT30;67932;50.474;4.436;2023-06-10T00:29:13;21.31;53.80
78611;SHT30;67932;50.474;4.436;2023-06-10T00:31:40;21.29;53.57
78611;SHT30;67932;50.474;4.436;2023-06-10T00:34:09;21.21;54.15
78611;SHT30;67932;50.474;4.436;2023-06-10T00:36:35;21.11;54.49
78611;SHT30;67932;50.474;4.436;2023-06-10T00:39:02;21.04;54.81
78611;SHT30;67932;50.474;4.436;2023-06-10T00:41:28;20.97;54.60
78611;SHT30;67932;50.474;4.436;2023-06-10T00:43:55;20.95;54.73
78611;SHT30;67932;50.474;4.436;2023-06-10T00:46:25;20.85;55.04
78611;SHT30;67932;50.474;4.436;2023-06-10T00:48:53;20.84;55.15
78611;SHT30;67932;50.474;4.436;2023-06-10T00:51:19;20.88;54.88
78611;SHT30;67932;50.474;4.436;2023-06-10T00:53:46;20.90;54.06
78611;SHT30;67932;50.474;4.436;2023-06-10T00:56:14;20.90;53.97
78611;SHT30;67932;50.474;4.436;2023-06-10T00:58:41;20.90;53.94
78611;SHT30;67932;50.474;4.436;2023-06-10T01:01:07;20.87;53.90
78611;SHT30;67932;50.474;4.436;2023-06-10T01:03:38;20.80;54.50
78611;SHT30;67932;50.474;4.436;2023-06-10T01:09:12;20.81;54.33
78611;SHT30;67932;50.474;4.436;2023-06-10T01:11:56;20.71;54.42
78611;SHT30;67932;50.474;4.436;2023-06-10T01:14:25;20.61;54.70
78611;SHT30;67932;50.474;4.436;2023-06-10T01:16:52;20.60;54.91
78611;SHT30;67932;50.474;4.436;2023-06-10T01:19:19;20.47;55.33
78611;SHT30;67932;50.474;4.436;2023-06-10T01:21:45;20.40;55.51
78611;SHT30;67932;50.474;4.436;2023-06-10T01:24:15;20.36;55.69
78611;SHT30;67932;50.474;4.436;2023-06-10T01:26:45;20.39;56.00
78611;SHT30;67932;50.474;4.436;2023-06-10T01:29:50;20.27;56.64
78611;SHT30;67932;50.474;4.436;2023-06-10T01:32:31;20.17;57.30
78611;SHT30;67932;50.474;4.436;2023-06-10T01:35:00;20.08;57.46
78611;SHT30;67932;50.474;4.436;2023-06-10T01:37:27;20.06;57.85
78611;SHT30;67932;50.474;4.436;2023-06-10T01:39:57;20.00;56.83
78611;SHT30;67932;50.474;4.436;2023-06-10T01:42:25;20.02;56.60
78611;SHT30;67932;50.474;4.436;2023-06-10T01:44:52;20.02;56.46
78611;SHT30;67932;50.474;4.436;2023-06-10T01:47:18;20.00;56.50
78611;SHT30;67932;50.474;4.436;2023-06-10T01:49:45;20.05;56.56
78611;SHT30;67932;50.474;4.436;2023-06-10T01:52:11;20.05;57.04
78611;SHT30;67932;50.474;4.436;2023-06-10T01:54:37;19.99;57.06
78611;SHT30;67932;50.474;4.436;2023-06-10T01:57:04;19.93;57.71
78611;SHT30;67932;50.474;4.436;2023-06-10T01:59:32;19.90;57.62
78611;SHT30;67932;50.474;4.436;2023-06-10T02:01:58;19.89;57.04
78611;SHT30;67932;50.474;4.436;2023-06-10T02:04:24;19.93;57.40
78611;SHT30;67932;50.474;4.436;2023-06-10T02:06:51;19.92;57.62
78611;SHT30;67932;50.474;4.436;2023-06-10T02:09:17;19.92;57.38
78611;SHT30;67932;50.474;4.436;2023-06-10T02:11:44;19.89;57.47
78611;SHT30;67932;50.474;4.436;2023-06-10T02:14:11;19.82;57.42
78611;SHT30;67932;50.474;4.436;2023-06-10T02:16:37;19.83;57.41
78611;SHT30;67932;50.474;4.436;2023-06-10T02:19:03;19.73;57.61
78611;SHT30;67932;50.474;4.436;2023-06-10T02:21:32;19.76;57.83
78611;SHT30;67932;50.474;4.436;2023-06-10T02:24:00;19.68;58.25
78611;SHT30;67932;50.474;4.436;2023-06-10T02:26:27;19.59;58.53
78611;SHT30;67932;50.474;4.436;2023-06-10T02:28:53;19.59;58.97
78611;SHT30;67932;50.474;4.436;2023-06-10T02:31:20;19.52;59.22
78611;SHT30;67932;50.474;4.436;2023-06-10T02:33:46;19.39;59.59
78611;SHT30;67932;50.474;4.436;2023-06-10T02:36:12;19.36;59.46
78611;SHT30;67932;50.474;4.436;2023-06-10T02:38:40;19.32;59.70
78611;SHT30;67932;50.474;4.436;2023-06-10T02:41:06;19.27;59.71
78611;SHT30;67932;50.474;4.436;2023-06-10T02:43:32;19.36;59.48
78611;SHT30;67932;50.474;4.436;2023-06-10T02:45:59;19.35;59.43
78611;SHT30;67932;50.474;4.436;2023-06-10T02:48:28;19.38;59.15
78611;SHT30;67932;50.474;4.436;2023-06-10T02:51:01;19.47;58.98
78611;SHT30;67932;50.474;4.436;2023-06-10T02:53:27;19.49;58.92
78611;SHT30;67932;50.474;4.436;2023-06-10T02:55:53;19.54;58.99
78611;SHT30;67932;50.474;4.436;2023-06-10T02:58:19;19.55;58.76
78611;SHT30;67932;50.474;4.436;2023-06-10T03:00:47;19.58;58.61
78611;SHT30;67932;50.474;4.436;2023-06-10T03:03:13;19.52;58.84
78611;SHT30;67932;50.474;4.436;2023-06-10T03:05:40;19.49;58.76
78611;SHT30;67932;50.474;4.436;2023-06-10T03:08:06;19.44;59.63
78611;SHT30;67932;50.474;4.436;2023-06-10T03:10:32;19.42;59.48
78611;SHT30;67932;50.474;4.436;2023-06-10T03:12:59;19.48;59.30
78611;SHT30;67932;50.474;4.436;2023-06-10T03:15:25;19.48;58.60
78611;SHT30;67932;50.474;4.436;2023-06-10T03:17:51;19.48;59.24
78611;SHT30;67932;50.474;4.436;2023-06-10T03:20:18;19.47;58.96
78611;SHT30;67932;50.474;4.436;2023-06-10T03:22:44;19.48;59.18
78611;SHT30;67932;50.474;4.436;2023-06-10T03:25:10;19.47;59.54
78611;SHT30;67932;50.474;4.436;2023-06-10T03:27:41;19.48;59.23
78611;SHT30;67932;50.474;4.436;2023-06-10T03:30:08;19.36;59.56
78611;SHT30;67932;50.474;4.436;2023-06-10T03:32:34;19.35;59.79
78611;SHT30;67932;50.474;4.436;2023-06-10T03:35:01;19.28;60.05
78611;SHT30;67932;50.474;4.436;2023-06-10T03:37:28;19.31;59.57
78611;SHT30;67932;50.474;4.436;2023-06-10T03:39:54;19.29;60.14
78611;SHT30;67932;50.474;4.436;2023-06-10T03:42:20;19.25;59.92
78611;SHT30;67932;50.474;4.436;2023-06-10T03:44:46;19.21;60.26
78611;SHT30;67932;50.474;4.436;2023-06-10T03:47:13;19.24;60.26
78611;SHT30;67932;50.474;4.436;2023-06-10T03:49:39;19.22;61.12
78611;SHT30;67932;50.474;4.436;2023-06-10T03:52:06;19.24;60.89
78611;SHT30;67932;50.474;4.436;2023-06-10T03:54:32;19.21;61.24
78611;SHT30;67932;50.474;4.436;2023-06-10T03:57:01;19.12;61.92
78611;SHT30;67932;50.474;4.436;2023-06-10T03:59:27;19.14;61.77
78611;SHT30;67932;50.474;4.436;2023-06-10T04:01:54;19.15;61.53
78611;SHT30;67932;50.474;4.436;2023-06-10T04:04:21;19.21;61.65
78611;SHT30;67932;50.474;4.436;2023-06-10T04:06:47;19.24;60.95
78611;SHT30;67932;50.474;4.436;2023-06-10T04:09:14;19.28;61.19
78611;SHT30;67932;50.474;4.436;2023-06-10T04:11:42;19.29;60.99
78611;SHT30;67932;50.474;4.436;2023-06-10T04:14:08;19.36;60.83
78611;SHT30;67932;50.474;4.436;2023-06-10T04:16:35;19.41;60.21
78611;SHT30;67932;50.474;4.436;2023-06-10T04:19:01;19.41;60.27
78611;SHT30;67932;50.474;4.436;2023-06-10T04:21:28;19.48;60.21
78611;SHT30;67932;50.474;4.436;2023-06-10T04:23:54;19.49;59.96
78611;SHT30;67932;50.474;4.436;2023-06-10T04:26:20;19.54;60.39
78611;SHT30;67932;50.474;4.436;2023-06-10T04:28:47;19.63;59.47
78611;SHT30;67932;50.474;4.436;2023-06-10T04:31:14;19.68;59.58
78611;SHT30;67932;50.474;4.436;2023-06-10T04:33:40;19.63;59.91
78611;SHT30;67932;50.474;4.436;2023-06-10T04:36:06;19.62;59.79
78611;SHT30;67932;50.474;4.436;2023-06-10T04:38:33;19.66;59.60
78611;SHT30;67932;50.474;4.436;2023-06-10T04:40:59;19.65;59.36
78611;SHT30;67932;50.474;4.436;2023-06-10T04:43:25;19.68;59.52
78611;SHT30;67932;50.474;4.436;2023-06-10T04:45:52;19.72;59.59
78611;SHT30;67932;50.474;4.436;2023-06-10T04:48:18;19.75;59.42
78611;SHT30;67932;50.474;4.436;2023-06-10T04:50:44;19.76;59.89
78611;SHT30;67932;50.474;4.436;2023-06-10T04:53:11;19.83;59.57
78611;SHT30;67932;50.474;4.436;2023-06-10T04:55:37;19.82;59.51
78611;SHT30;67932;50.474;4.436;2023-06-10T04:58:03;19.80;60.00
78611;SHT30;67932;50.474;4.436;2023-06-10T05:00:29;19.89;58.33
78611;SHT30;67932;50.474;4.436;2023-06-10T05:02:55;19.96;59.91
78611;SHT30;67932;50.474;4.436;2023-06-10T05:05:22;20.03;59.42
78611;SHT30;67932;50.474;4.436;2023-06-10T05:07:48;20.06;59.19
78611;SHT30;67932;50.474;4.436;2023-06-10T05:10:14;20.16;58.53
78611;SHT30;67932;50.474;4.436;2023-06-10T05:12:41;20.26;58.78
78611;SHT30;67932;50.474;4.436;2023-06-10T05:15:08;20.26;58.56
78611;SHT30;67932;50.474;4.436;2023-06-10T05:17:35;20.33;58.13
78611;SHT30;67932;50.474;4.436;2023-06-10T05:20:02;20.43;57.16
78611;SHT30;67932;50.474;4.436;2023-06-10T05:22:28;20.53;57.07
78611;SHT30;67932;50.474;4.436;2023-06-10T05:24:54;20.57;57.10
78611;SHT30;67932;50.474;4.436;2023-06-10T05:27:21;20.63;56.60
78611;SHT30;67932;50.474;4.436;2023-06-10T05:29:48;20.68;56.06
78611;SHT30;67932;50.474;4.436;2023-06-10T05:32:14;20.80;55.28
78611;SHT30;67932;50.474;4.436;2023-06-10T05:34:40;20.90;55.47
78611;SHT30;67932;50.474;4.436;2023-06-10T05:37:07;20.90;55.31
78611;SHT30;67932;50.474;4.436;2023-06-10T05:39:33;20.90;55.26
78611;SHT30;67932;50.474;4.436;2023-06-10T05:42:04;20.99;55.31
78611;SHT30;67932;50.474;4.436;2023-06-10T05:44:32;21.09;54.73
78611;SHT30;67932;50.474;4.436;2023-06-10T05:46:58;21.04;54.53
78611;SHT30;67932;50.474;4.436;2023-06-10T05:49:25;21.12;55.26
78611;SHT30;67932;50.474;4.436;2023-06-10T05:51:51;21.14;54.71
78611;SHT30;67932;50.474;4.436;2023-06-10T05:54:19;21.21;54.55
78611;SHT30;67932;50.474;4.436;2023-06-10T05:56:45;21.34;54.59
78611;SHT30;67932;50.474;4.436;2023-06-10T05:59:11;21.34;54.35
78611;SHT30;67932;50.474;4.436;2023-06-10T06:01:38;21.28;54.74
78611;SHT30;67932;50.474;4.436;2023-06-10T06:04:04;21.38;54.33
78611;SHT30;67932;50.474;4.436;2023-06-10T06:06:30;21.49;53.61
78611;SHT30;67932;50.474;4.436;2023-06-10T06:08:57;21.52;54.20
78611;SHT30;67932;50.474;4.436;2023-06-10T06:11:23;21.53;53.95
78611;SHT30;67932;50.474;4.436;2023-06-10T06:13:50;21.63;52.87
78611;SHT30;67932;50.474;4.436;2023-06-10T06:16:16;21.78;52.37
78611;SHT30;67932;50.474;4.436;2023-06-10T06:18:44;21.73;53.16
78611;SHT30;67932;50.474;4.436;2023-06-10T06:21:10;21.81;53.55
78611;SHT30;67932;50.474;4.436;2023-06-10T06:23:37;21.86;53.23
78611;SHT30;67932;50.474;4.436;2023-06-10T06:26:03;21.88;52.81
78611;SHT30;67932;50.474;4.436;2023-06-10T06:28:29;21.96;51.86
78611;SHT30;67932;50.474;4.436;2023-06-10T06:30:57;22.07;51.28
78611;SHT30;67932;50.474;4.436;2023-06-10T06:33:23;22.16;51.32
78611;SHT30;67932;50.474;4.436;2023-06-10T06:35:52;22.24;51.00
78611;SHT30;67932;50.474;4.436;2023-06-10T06:38:18;22.21;52.01
78611;SHT30;67932;50.474;4.436;2023-06-10T06:40:44;22.27;50.29
78611;SHT30;67932;50.474;4.436;2023-06-10T06:43:10;22.37;50.67
78611;SHT30;67932;50.474;4.436;2023-06-10T06:45:37;22.43;50.33
78611;SHT30;67932;50.474;4.436;2023-06-10T06:48:04;22.47;50.59
78611;SHT30;67932;50.474;4.436;2023-06-10T06:50:31;22.48;50.41
78611;SHT30;67932;50.474;4.436;2023-06-10T06:52:57;22.56;50.54
78611;SHT30;67932;50.474;4.436;2023-06-10T06:55:23;22.65;50.03
78611;SHT30;67932;50.474;4.436;2023-06-10T06:57:49;22.72;49.08
78611;SHT30;67932;50.474;4.436;2023-06-10T07:00:16;22.80;49.85
78611;SHT30;67932;50.474;4.436;2023-06-10T07:02:42;22.81;51.23
78611;SHT30;67932;50.474;4.436;2023-06-10T07:05:09;22.92;49.48
78611;SHT30;67932;50.474;4.436;2023-06-10T07:07:35;23.04;49.14
78611;SHT30;67932;50.474;4.436;2023-06-10T07:10:01;23.08;48.73
78611;SHT30;67932;50.474;4.436;2023-06-10T07:12:28;23.12;49.31
78611;SHT30;67932;50.474;4.436;2023-06-10T07:14:54;23.16;49.05
78611;SHT30;67932;50.474;4.436;2023-06-10T07:17:20;23.19;50.45
78611;SHT30;67932;50.474;4.436;2023-06-10T07:19:46;23.22;49.74
78611;SHT30;67932;50.474;4.436;2023-06-10T07:22:13;23.29;49.31
78611;SHT30;67932;50.474;4.436;2023-06-10T07:24:39;23.39;48.41
78611;SHT30;67932;50.474;4.436;2023-06-10T07:27:06;23.48;48.39
78611;SHT30;67932;50.474;4.436;2023-06-10T07:29:33;23.58;48.08
78611;SHT30;67932;50.474;4.436;2023-06-10T07:31:59;23.70;46.89
78611;SHT30;67932;50.474;4.436;2023-06-10T07:34:25;23.70;47.66
78611;SHT30;67932;50.474;4.436;2023-06-10T07:36:52;23.80;46.60
78611;SHT30;67932;50.474;4.436;2023-06-10T07:39:18;23.79;46.67
78611;SHT30;67932;50.474;4.436;2023-06-10T07:41:44;23.99;45.73
78611;SHT30;67932;50.474;4.436;2023-06-10T07:44:10;24.05;46.11
78611;SHT30;67932;50.474;4.436;2023-06-10T07:46:37;24.07;46.51
78611;SHT30;67932;50.474;4.436;2023-06-10T07:49:03;24.14;45.48
78611;SHT30;67932;50.474;4.436;2023-06-10T07:51:29;24.13;45.04
78611;SHT30;67932;50.474;4.436;2023-06-10T07:53:56;24.20;44.78
78611;SHT30;67932;50.474;4.436;2023-06-10T07:56:22;24.21;42.93
78611;SHT30;67932;50.474;4.436;2023-06-10T07:58:48;24.29;44.07
78611;SHT30;67932;50.474;4.436;2023-06-10T08:01:14;24.39;43.88
78611;SHT30;67932;50.474;4.436;2023-06-10T08:03:40;24.41;44.45
78611;SHT30;67932;50.474;4.436;2023-06-10T08:06:07;24.56;43.79
78611;SHT30;67932;50.474;4.436;2023-06-10T08:08:33;24.65;44.92
78611;SHT30;67932;50.474;4.436;2023-06-10T08:11:00;24.68;44.11
78611;SHT30;67932;50.474;4.436;2023-06-10T08:13:27;24.81;44.24
78611;SHT30;67932;50.474;4.436;2023-06-10T08:15:53;24.74;44.59
78611;SHT30;67932;50.474;4.436;2023-06-10T08:18:21;24.75;43.69
78611;SHT30;67932;50.474;4.436;2023-06-10T08:20:47;24.91;43.34
78611;SHT30;67932;50.474;4.436;2023-06-10T08:23:14;24.87;44.12
78611;SHT30;67932;50.474;4.436;2023-06-10T08:25:41;24.95;43.85
78611;SHT30;67932;50.474;4.436;2023-06-10T08:28:07;25.04;43.62
78611;SHT30;67932;50.474;4.436;2023-06-10T08:30:33;25.05;43.53
78611;SHT30;67932;50.474;4.436;2023-06-10T08:33:00;25.25;43.29
78611;SHT30;67932;50.474;4.436;2023-06-10T08:35:26;25.32;42.28
78611;SHT30;67932;50.474;4.436;2023-06-10T08:37:53;25.31;42.26
78611;SHT30;67932;50.474;4.436;2023-06-10T08:40:19;25.39;42.08
78611;SHT30;67932;50.474;4.436;2023-06-10T08:42:49;25.38;42.30
78611;SHT30;67932;50.474;4.436;2023-06-10T08:45:19;25.31;42.63
78611;SHT30;67932;50.474;4.436;2023-06-10T08:47:48;25.43;42.62
78611;SHT30;67932;50.474;4.436;2023-06-10T08:50:17;25.50;42.57
78611;SHT30;67932;50.474;4.436;2023-06-10T08:52:44;25.53;43.50
78611;SHT30;67932;50.474;4.436;2023-06-10T08:55:21;25.65;42.04
78611;SHT30;67932;50.474;4.436;2023-06-10T08:57:52;25.66;41.59
78611;SHT30;67932;50.474;4.436;2023-06-10T09:00:19;25.63;43.20
78611;SHT30;67932;50.474;4.436;2023-06-10T09:02:46;25.63;42.14
78611;SHT30;67932;50.474;4.436;2023-06-10T09:05:13;25.90;41.84
78611;SHT30;67932;50.474;4.436;2023-06-10T09:07:39;25.90;41.53
78611;SHT30;67932;50.474;4.436;2023-06-10T09:10:06;26.09;40.55
78611;SHT30;67932;50.474;4.436;2023-06-10T09:12:35;25.97;41.60
78611;SHT30;67932;50.474;4.436;2023-06-10T09:15:04;25.99;41.47
78611;SHT30;67932;50.474;4.436;2023-06-10T09:17:31;25.96;39.90
78611;SHT30;67932;50.474;4.436;2023-06-10T09:19:58;26.10;40.48
78611;SHT30;67932;50.474;4.436;2023-06-10T09:22:25;26.14;39.95
78611;SHT30;67932;50.474;4.436;2023-06-10T09:25:02;26.19;40.05
78611;SHT30;67932;50.474;4.436;2023-06-10T09:27:30;26.24;40.67
78611;SHT30;67932;50.474;4.436;2023-06-10T09:29:58;26.19;39.38
78611;SHT30;67932;50.474;4.436;2023-06-10T09:32:25;26.27;40.14
78611;SHT30;67932;50.474;4.436;2023-06-10T09:34:51;26.31;41.03
78611;SHT30;67932;50.474;4.436;2023-06-10T09:37:22;26.45;39.32
78611;SHT30;67932;50.474;4.436;2023-06-10T09:40:04;26.45;40.51
78611;SHT30;67932;50.474;4.436;2023-06-10T09:42:35;26.65;39.90
78611;SHT30;67932;50.474;4.436;2023-06-10T09:45:03;26.74;39.36
78611;SHT30;67932;50.474;4.436;2023-06-10T09:47:30;26.87;40.34
78611;SHT30;67932;50.474;4.436;2023-06-10T09:49:57;26.83;37.60
78611;SHT30;67932;50.474;4.436;2023-06-10T09:52:24;26.90;37.95
78611;SHT30;67932;50.474;4.436;2023-06-10T09:54:59;26.88;38.03
78611;SHT30;67932;50.474;4.436;2023-06-10T09:57:31;26.84;37.57
78611;SHT30;67932;50.474;4.436;2023-06-10T10:00:11;26.90;36.86
78611;SHT30;67932;50.474;4.436;2023-06-10T10:02:46;26.95;37.44
78611;SHT30;67932;50.474;4.436;2023-06-10T10:05:15;26.96;36.64
78611;SHT30;67932;50.474;4.436;2023-06-10T10:07:43;27.11;37.62
78611;SHT30;67932;50.474;4.436;2023-06-10T10:10:11;27.09;37.46
78611;SHT30;67932;50.474;4.436;2023-06-10T10:12:42;27.25;36.20
78611;SHT30;67932;50.474;4.436;2023-06-10T10:15:09;27.25;36.01
78611;SHT30;67932;50.474;4.436;2023-06-10T10:17:52;27.24;36.37
78611;SHT30;67932;50.474;4.436;2023-06-10T10:20:22;27.34;36.01
78611;SHT30;67932;50.474;4.436;2023-06-10T10:22:53;27.29;36.60
78611;SHT30;67932;50.474;4.436;2023-06-10T10:25:40;27.25;36.20
78611;SHT30;67932;50.474;4.436;2023-06-10T10:28:13;27.32;36.49
78611;SHT30;67932;50.474;4.436;2023-06-10T10:30:44;27.34;37.07
78611;SHT30;67932;50.474;4.436;2023-06-10T10:34:00;27.55;36.30
78611;SHT30;67932;50.474;4.436;2023-06-10T10:36:28;27.74;35.72
78611;SHT30;67932;50.474;4.436;2023-06-10T10:38:55;27.76;34.30
78611;SHT30;67932;50.474;4.436;2023-06-10T10:41:23;27.74;34.14
78611;SHT30;67932;50.474;4.436;2023-06-10T10:43:52;28.04;33.42
78611;SHT30;67932;50.474;4.436;2023-06-10T10:46:18;28.07;32.64
78611;SHT30;67932;50.474;4.436;2023-06-10T10:48:45;28.10;32.36
78611;SHT30;67932;50.474;4.436;2023-06-10T10:51:12;28.64;32.21
78611;SHT30;67932;50.474;4.436;2023-06-10T10:53:41;29.67;31.55
78611;SHT30;67932;50.474;4.436;2023-06-10T10:56:14;30.00;30.38
78611;SHT30;67932;50.474;4.436;2023-06-10T10:58:41;29.67;30.72
78611;SHT30;67932;50.474;4.436;2023-06-10T11:01:15;29.31;31.01
78611;SHT30;67932;50.474;4.436;2023-06-10T11:03:45;29.36;30.43
78611;SHT30;67932;50.474;4.436;2023-06-10T11:06:17;29.11;31.85
78611;SHT30;67932;50.474;4.436;2023-06-10T11:11:26;28.91;32.50
78611;SHT30;67932;50.474;4.436;2023-06-10T11:14:08;28.47;34.54
78611;SHT30;67932;50.474;4.436;2023-06-10T11:16:41;28.23;33.43
78611;SHT30;67932;50.474;4.436;2023-06-10T11:19:08;28.45;32.90
78611;SHT30;67932;50.474;4.436;2023-06-10T11:22:05;28.67;33.46
78611;SHT30;67932;50.474;4.436;2023-06-10T11:24:31;28.98;31.72
78611;SHT30;67932;50.474;4.436;2023-06-10T11:27:17;29.19;32.22
78611;SHT30;67932;50.474;4.436;2023-06-10T11:32:31;28.99;32.20
78611;SHT30;67932;50.474;4.436;2023-06-10T11:34:58;29.07;34.96
78611;SHT30;67932;50.474;4.436;2023-06-10T11:37:24;29.09;32.84
78611;SHT30;67932;50.474;4.436;2023-06-10T11:39:57;29.32;32.59
78611;SHT30;67932;50.474;4.436;2023-06-10T11:42:24;29.28;32.77
78611;SHT30;67932;50.474;4.436;2023-06-10T11:44:54;29.43;32.72
78611;SHT30;67932;50.474;4.436;2023-06-10T11:47:21;29.39;31.29
78611;SHT30;67932;50.474;4.436;2023-06-10T11:49:56;29.45;35.48
78611;SHT30;67932;50.474;4.436;2023-06-10T11:52:32;29.72;31.41
78611;SHT30;67932;50.474;4.436;2023-06-10T11:55:04;29.90;30.17
78611;SHT30;67932;50.474;4.436;2023-06-10T11:57:34;31.08;28.63
78611;SHT30;67932;50.474;4.436;2023-06-10T12:00:07;32.44;27.93
78611;SHT30;67932;50.474;4.436;2023-06-10T12:02:34;32.06;28.84
78611;SHT30;67932;50.474;4.436;2023-06-10T12:05:15;31.94;28.15
78611;SHT30;67932;50.474;4.436;2023-06-10T12:07:44;30.98;29.19
78611;SHT30;67932;50.474;4.436;2023-06-10T12:10:10;30.43;28.89
78611;SHT30;67932;50.474;4.436;2023-06-10T12:12:36;30.87;28.60
78611;SHT30;67932;50.474;4.436;2023-06-10T12:15:03;31.09;27.65
78611;SHT30;67932;50.474;4.436;2023-06-10T12:19:58;29.72;31.95
78611;SHT30;67932;50.474;4.436;2023-06-10T12:22:25;30.13;29.92
78611;SHT30;67932;50.474;4.436;2023-06-10T12:25:00;30.26;30.75
78611;SHT30;67932;50.474;4.436;2023-06-10T12:27:27;29.93;29.58
78611;SHT30;67932;50.474;4.436;2023-06-10T12:29:56;29.83;30.80
78611;SHT30;67932;50.474;4.436;2023-06-10T12:32:41;29.63;30.86
78611;SHT30;67932;50.474;4.436;2023-06-10T12:35:08;31.09;27.92
78611;SHT30;67932;50.474;4.436;2023-06-10T12:37:35;31.93;27.85
78611;SHT30;67932;50.474;4.436;2023-06-10T12:40:04;32.63;27.37
78611;SHT30;67932;50.474;4.436;2023-06-10T12:42:32;30.92;28.28
78611;SHT30;67932;50.474;4.436;2023-06-10T12:45:02;30.54;28.59
78611;SHT30;67932;50.474;4.436;2023-06-10T12:47:38;30.23;29.49
78611;SHT30;67932;50.474;4.436;2023-06-10T12:50:06;32.00;26.11
78611;SHT30;67932;50.474;4.436;2023-06-10T12:52:33;33.15;24.90
78611;SHT30;67932;50.474;4.436;2023-06-10T12:54:59;34.67;24.79
78611;SHT30;67932;50.474;4.436;2023-06-10T12:57:26;33.26;25.15
78611;SHT30;67932;50.474;4.436;2023-06-10T12:59:53;34.21;27.06
78611;SHT30;67932;50.474;4.436;2023-06-10T13:02:19;35.45;25.73
78611;SHT30;67932;50.474;4.436;2023-06-10T13:04:46;35.28;25.65
78611;SHT30;67932;50.474;4.436;2023-06-10T13:07:14;35.48;25.67
78611;SHT30;67932;50.474;4.436;2023-06-10T13:09:41;34.92;26.24
78611;SHT30;67932;50.474;4.436;2023-06-10T13:12:08;36.33;25.32
78611;SHT30;67932;50.474;4.436;2023-06-10T13:14:36;36.46;24.66
78611;SHT30;67932;50.474;4.436;2023-06-10T13:17:04;37.08;24.28
78611;SHT30;67932;50.474;4.436;2023-06-10T13:19:35;36.22;25.44
78611;SHT30;67932;50.474;4.436;2023-06-10T13:22:01;33.99;28.59
78611;SHT30;67932;50.474;4.436;2023-06-10T13:24:27;32.87;29.93
78611;SHT30;67932;50.474;4.436;2023-06-10T13:26:54;34.49;27.70
78611;SHT30;67932;50.474;4.436;2023-06-10T13:29:21;35.34;26.86
78611;SHT30;67932;50.474;4.436;2023-06-10T13:31:48;36.00;26.72
78611;SHT30;67932;50.474;4.436;2023-06-10T13:34:15;36.83;25.13
78611;SHT30;67932;50.474;4.436;2023-06-10T13:36:41;37.51;24.55
78611;SHT30;67932;50.474;4.436;2023-06-10T13:39:07;37.68;23.69
78611;SHT30;67932;50.474;4.436;2023-06-10T13:41:34;37.10;24.35
78611;SHT30;67932;50.474;4.436;2023-06-10T13:44:00;34.87;26.27
78611;SHT30;67932;50.474;4.436;2023-06-10T13:46:26;35.35;26.00
78611;SHT30;67932;50.474;4.436;2023-06-10T13:48:53;34.23;27.36
78611;SHT30;67932;50.474;4.436;2023-06-10T13:51:20;33.04;29.50
78611;SHT30;67932;50.474;4.436;2023-06-10T13:53:46;32.28;28.94
78611;SHT30;67932;50.474;4.436;2023-06-10T13:56:13;31.75;30.52
78611;SHT30;67932;50.474;4.436;2023-06-10T13:58:40;31.21;31.08
78611;SHT30;67932;50.474;4.436;2023-06-10T14:01:07;31.67;30.17
78611;SHT30;67932;50.474;4.436;2023-06-10T14:03:34;31.85;29.83
78611;SHT30;67932;50.474;4.436;2023-06-10T14:06:00;32.02;29.80
78611;SHT30;67932;50.474;4.436;2023-06-10T14:08:26;33.55;28.38
78611;SHT30;67932;50.474;4.436;2023-06-10T14:10:53;33.93;27.48
78611;SHT30;67932;50.474;4.436;2023-06-10T14:13:19;32.98;28.46
78611;SHT30;67932;50.474;4.436;2023-06-10T14:15:46;32.61;28.77
78611;SHT30;67932;50.474;4.436;2023-06-10T14:18:12;32.07;29.83
78611;SHT30;67932;50.474;4.436;2023-06-10T14:20:38;31.32;30.09
78611;SHT30;67932;50.474;4.436;2023-06-10T14:23:05;30.82;30.37
78611;SHT30;67932;50.474;4.436;2023-06-10T14:25:31;30.54;30.73
78611;SHT30;67932;50.474;4.436;2023-06-10T14:27:57;30.28;32.40
78611;SHT30;67932;50.474;4.436;2023-06-10T14:30:24;30.00;31.70
78611;SHT30;67932;50.474;4.436;2023-06-10T14:32:50;29.77;31.92
78611;SHT30;67932;50.474;4.436;2023-06-10T14:35:16;29.70;32.34
78611;SHT30;67932;50.474;4.436;2023-06-10T14:37:43;29.69;32.02
78611;SHT30;67932;50.474;4.436;2023-06-10T14:40:09;29.80;31.86
78611;SHT30;67932;50.474;4.436;2023-06-10T14:42:36;29.93;31.55
78611;SHT30;67932;50.474;4.436;2023-06-10T14:45:03;31.59;30.48
78611;SHT30;67932;50.474;4.436;2023-06-10T14:47:29;32.78;28.00
78611;SHT30;67932;50.474;4.436;2023-06-10T14:49:55;32.98;28.08
78611;SHT30;67932;50.474;4.436;2023-06-10T14:52:21;34.09;27.05
78611;SHT30;67932;50.474;4.436;2023-06-10T14:54:47;34.91;25.79
78611;SHT30;67932;50.474;4.436;2023-06-10T14:57:14;35.38;25.41
78611;SHT30;67932;50.474;4.436;2023-06-10T14:59:40;35.75;24.86
78611;SHT30;67932;50.474;4.436;2023-06-10T15:02:06;36.12;24.15
78611;SHT30;67932;50.474;4.436;2023-06-10T15:04:33;36.19;24.03
78611;SHT30;67932;50.474;4.436;2023-06-10T15:06:59;36.60;24.00
78611;SHT30;67932;50.474;4.436;2023-06-10T15:09:25;36.30;24.09
78611;SHT30;67932;50.474;4.436;2023-06-10T15:11:51;35.46;24.76
78611;SHT30;67932;50.474;4.436;2023-06-10T15:14:18;34.91;25.31
78611;SHT30;67932;50.474;4.436;2023-06-10T15:16:44;34.26;24.40
78611;SHT30;67932;50.474;4.436;2023-06-10T15:19:10;33.48;25.22
78611;SHT30;67932;50.474;4.436;2023-06-10T15:21:36;32.98;26.29
78611;SHT30;67932;50.474;4.436;2023-06-10T15:24:03;32.41;27.25
78611;SHT30;67932;50.474;4.436;2023-06-10T15:26:29;31.94;28.60
78611;SHT30;67932;50.474;4.436;2023-06-10T15:28:56;32.07;28.93
78611;SHT30;67932;50.474;4.436;2023-06-10T15:31:22;32.65;28.76
78611;SHT30;67932;50.474;4.436;2023-06-10T15:33:48;33.85;26.20
78611;SHT30;67932;50.474;4.436;2023-06-10T15:36:15;34.74;25.89
78611;SHT30;67932;50.474;4.436;2023-06-10T15:38:41;35.24;24.77
78611;SHT30;67932;50.474;4.436;2023-06-10T15:41:08;35.79;23.09
78611;SHT30;67932;50.474;4.436;2023-06-10T15:43:35;36.20;23.05
78611;SHT30;67932;50.474;4.436;2023-06-10T15:46:01;36.28;23.67